• Join FlightAware (Why Join?)
  • Login
  • US Flag 
05:43PM EST


 

Airport Tracker/Info


-or-


 

Live Flight TrackerFlight Track Log ✈ LAK961 ✈ 07-Apr-2014 ✈ KHYS - 6S0

Flight Track Log - Related Links

Times and Time Zones

All times are in EDT time to prevent confusion due to time zone crossing. See the LAK961 flight status page for this flight to view local times or setup timezone preferences in your user account.

Time Position Orientation Groundspeed Altitude Reporting Facility
EDT Latitude Longitude Course Direction KTS MPH feet Rate Location/Type
01:40PM 38.9444 -99.3394 322° Northwest 223 257 8,400  Level Kansas City Center
01:41PM 38.9925 -99.3986 316° Northwest 203 234 12,300 2,952 Climbing Kansas City Center
01:42PM 39.0453 -99.4394 329° Northwest 213 245 14,500 2,304 Climbing Kansas City Center
01:43PM 39.0992 -99.4906 324° Northwest 235 270 17,100 2,016 Climbing Kansas City Center
01:44PM 39.1569 -99.5478 322° Northwest 255 293 18,700 1,452 Climbing Kansas City Center
01:45PM 38.9602 -99.3910 330° Northwest  Level FlightAware Approximate
01:45PM 39.2314 -99.6233 322° Northwest 290 334 20,100  Level Kansas City Center
01:46PM 39.0290 -99.4457 322° Northwest  Level FlightAware Approximate
01:46PM 39.3028 -99.6931 323° Northwest 318 366 21,400  Level Kansas City Center
01:47PM 39.3872 -99.7775 322° Northwest 336 387 23,000 1,344 Climbing Kansas City Center
01:48PM 39.4542 -99.8444 322° Northwest 340 391 24,200 1,358 Climbing Kansas City Center
01:50PM 39.5422 -99.9625 314° West 342 394 26,100 1,400 Climbing Denver Center
01:51PM 39.6139 -100.0628 313° West 342 394 27,700 1,500 Climbing Denver Center
01:52PM 39.6939 -100.1758 313° West 336 387 29,500 1,500 Climbing Denver Center
01:53PM 39.7531 -100.2578 313° West 329 379 30,800 1,283 Climbing Denver Center
01:55PM 39.8767 -100.4317 314° West 317 365 33,500 1,027 Climbing Denver Center
01:56PM 39.9333 -100.5106 313° West 314 361 34,000 242 Climbing Denver Center
01:57PM 40.0039 -100.6106 313° West 328 377 34,000 339 Level Denver Center
01:58PM 40.0667 -100.7011 312° West 342 394 34,700 794 Climbing Denver Center
01:59PM 40.1364 -100.7983 313° West 327 376 35,800 971 Climbing Denver Center
02:00PM 40.2131 -100.9078 305° West 320 368 36,900 1,056 Climbing Denver Center
02:01PM 40.1868 -100.8921 305° West  Level FlightAware Approximate
02:01PM 40.2672 -100.9867 312° West 307 353 38,000  Level Denver Center
02:05PM 40.4292 -101.2206 312° West 286 329 39,800 484 Climbing Denver Center
02:06PM 40.4867 -101.3039 312° West 279 321 40,000 97 Climbing Denver Center
02:07PM 40.5381 -101.3775 313° West 281 323 40,000  Level Denver Center
02:08PM 40.5997 -101.4686 312° West 293 337 40,000  Level Denver Center
02:09PM 40.6539 -101.5483 312° West 300 345 40,000  Level Denver Center
02:10PM 40.6930 -101.6108 312° West  Level FlightAware Approximate
02:10PM 40.7006 -101.6164 312° West 307 353 40,000  Level Denver Center
02:11PM 40.7758 -101.7286 312° West 314 361 40,000  Level Denver Center
02:12PM 40.8336 -101.8122 312° West 317 365 40,000  Level Denver Center
02:13PM 40.9014 -101.9136 312° West 325 374 40,000  Level Denver Center
02:14PM 40.9625 -101.9994 313° West 330 380 40,000  Level Denver Center
02:15PM 41.0311 -102.1036 311° West 334 384 40,000  Level Denver Center
02:16PM 41.0906 -102.1914 312° West 334 384 40,000  Level Denver Center
02:17PM 41.1589 -102.2956 311° West 335 386 40,000  Level Denver Center
02:18PM 41.2186 -102.3842 312° West 335 386 40,000  Level Denver Center
02:19PM 41.2872 -102.4889 311° West 335 386 40,000  Level Denver Center
02:20PM 41.3467 -102.5767 312° West 335 386 40,000  Level Denver Center
02:21PM 41.4092 -102.6717 311° West 335 386 40,000  Level Denver Center
02:22PM 41.4783 -102.7764 311° West 336 387 40,000  Level Denver Center
02:23PM 41.5372 -102.8681 311° West 339 390 40,000  Level Denver Center
02:25PM 41.6672 -103.0631 312° West 337 388 40,000  Level Salt Lake Center
02:26PM 41.7253 -103.1569 310° West 339 390 40,000  Level Denver Center
02:27PM 41.7939 -103.2631 311° West 339 390 40,000  Level Denver Center
02:28PM 41.8542 -103.3542 312° West 339 390 40,000  Level Denver Center
02:29PM 41.9217 -103.4619 310° West 339 390 40,000  Level Denver Center
02:30PM 41.9814 -103.5539 311° West 339 390 40,000  Level Denver Center
02:31PM 42.0508 -103.6611 311° West 341 392 40,000  Level Denver Center
02:32PM 42.1097 -103.7553 310° West 341 392 40,000  Level Denver Center
02:34PM 42.2389 -103.9578 311° West 340 391 40,000  Level Salt Lake Center
02:35PM 42.2989 -104.0525 311° West 345 397 40,000  Level Salt Lake Center
02:37PM 42.3689 -104.1653 310° West 347 399 40,000  Level Denver Center
02:38PM 42.4292 -104.2611 310° West 348 400 40,000  Level Denver Center
02:40PM 42.5586 -104.4669 311° West 346 398 40,000  Level Salt Lake Center
02:41PM 42.6344 -104.5925 309° West 347 399 40,000  Level Denver Center
02:42PM 42.7003 -104.6994 310° West 347 399 40,000  Level Denver Center
02:43PM 42.7592 -104.7942 310° West 346 398 40,000  Level Denver Center
02:44PM 42.8278 -104.9061 310° West 345 397 40,000  Level Denver Center
02:45PM 42.8856 -105.0008 310° West 343 395 40,000  Level Denver Center
02:46PM 42.9525 -105.1100 310° West 341 392 40,000  Level Denver Center
02:47PM 43.0106 -105.2064 309° West 342 394 40,000  Level Denver Center
02:48PM 43.0767 -105.3161 310° West 337 388 40,000  Level Denver Center
02:49PM 43.1333 -105.4111 309° West 337 388 40,000  Level Denver Center
02:50PM 43.2003 -105.5225 310° West 338 389 40,000  Level Denver Center
02:51PM 43.2586 -105.6186 310° West 340 391 40,000  Level Denver Center
02:52PM 43.3158 -105.7147 309° West 343 395 40,000  Level Denver Center
02:53PM 43.3825 -105.8269 309° West 342 394 40,000  Level Denver Center
02:54PM 43.4392 -105.9217 310° West 339 390 40,000  Level Denver Center
02:55PM 43.5039 -106.0331 309° West 334 384 40,000  Level Denver Center
02:56PM 43.5594 -106.1267 309° West 333 383 40,000  Level Denver Center
02:57PM 43.6231 -106.2358 309° West 331 381 40,000  Level Denver Center
02:58PM 43.6758 -106.3303 308° West 329 379 40,000  Level Denver Center
02:59PM 43.7397 -106.4383 309° West 324 373 40,000  Level Denver Center
03:01PM 43.7933 -106.5297 309° West 324 373 40,000  Level Denver Center
03:02PM 43.8531 -106.6369 308° West 319 367 40,000  Level Denver Center
03:02PM 43.8789 -106.6833 308° West 318 366 40,000  Level Salt Lake Center
03:03PM 43.9047 -106.7267 310° West 316 364 40,000  Level Denver Center
03:04PM 43.9739 -106.8444 309° West 313 360 40,000  Level Denver Center
03:05PM 44.0208 -106.9267 308° West 311 358 40,000  Level Denver Center
03:06PM 44.0842 -107.0386 308° West 311 358 40,000  Level Denver Center
03:07PM 44.1392 -107.1331 309° West 312 359 40,000  Level Denver Center
03:08PM 44.1903 -107.2267 307° West 307 353 40,000  Level Denver Center
03:09PM 44.2417 -107.3158 309° West 298 343 40,000  Level Denver Center
03:10PM 44.2825 -107.3900 308° West 298 343 40,000  Level Denver Center
03:11PM 44.3436 -107.4983 308° West 298 343 40,000  Level Denver Center
03:12PM 44.4150 -107.6269 308° West 298 343 40,000  Level Salt Lake Center
03:13PM 44.4653 -107.7186 308° West 298 343 40,000  Level Salt Lake Center
03:14PM 44.5169 -107.8100 308° West 298 343 40,000 -97 Level Salt Lake Center
03:15PM 44.5667 -107.9022 307° West 298 343 39,800 -968 Descending Salt Lake Center
03:16PM 44.6308 -108.0203 307° West 310 357 38,000 -1,659 Descending Salt Lake Center
03:18PM 44.6900 -108.1258 308° West 333 383 36,400 -1,561 Descending Salt Lake Center
03:19PM 44.7492 -108.2350 307° West 343 395 34,800 -1,548 Descending Salt Lake Center
03:20PM 44.8075 -108.3417 308° West 343 395 33,200 -1,548 Descending Salt Lake Center
03:21PM 44.8639 -108.4431 308° West 335 386 31,600 -1,694 Descending Salt Lake Center
03:22PM 44.9183 -108.5447 307° West 329 379 29,700 -1,902 Descending Salt Lake Center
03:23PM 44.9767 -108.6369 312° West 319 367 27,700 -1,805 Descending Salt Lake Center
03:24PM 45.0347 -108.7244 313° West 311 358 26,000 -1,645 Descending Salt Lake Center
03:25PM 45.0883 -108.8125 311° West 301 346 24,300 -1,839 Descending Salt Lake Center
03:26PM 45.1503 -108.9131 311° West 284 327 22,200 -1,854 Descending Salt Lake Center
03:27PM 45.2006 -108.9928 312° West 275 316 20,500 -1,622 Descending Salt Lake Center
03:29PM 45.2986 -109.1511 311° West 260 299 17,200 -1,459 Descending Salt Lake Center
03:30PM 45.3461 -109.2261 312° West 259 298 16,000 -585 Descending Salt Lake Center
03:31PM 45.3933 -109.3008 312° West 241 277 16,000  Level Salt Lake Center
03:32PM 45.4347 -109.3703 310° West 234 269 16,000  Level Salt Lake Center
03:33PM 45.4797 -109.4425 312° West 231 266 16,000  Level Salt Lake Center
03:34PM 45.5214 -109.5097 312° West 230 265 16,000 -195 Level Salt Lake Center
03:35PM 45.5608 -109.5744 311° West 220 253 15,600 -1,645 Descending Salt Lake Center
03:37PM 45.6442 -109.7111 311° West 222 255 10,900 -2,205 Descending Salt Lake Center
03:38PM 45.6839 -109.7761 311° West 227 261 8,800 -1,415 Descending Salt Lake Center
03:39PM 45.7239 -109.8342 315° West 220 253 8,000 -1,161 Descending Salt Lake Center
03:40PM 45.7642 -109.8994 312° West 199 229 6,400 -976 Descending Salt Lake Center
03:41PM 45.7728 -109.9569 282° West 168 193 6,000 -293 Descending Salt Lake Center
03:42PM 45.7969 -109.9917 315° West 138 159 5,800 -194 Descending Salt Lake Center
03:44PM 45.8000 -109.9667 325° Northwest  Level FlightAware Approximate
03:51PM 45.8064 -109.9783 325° Northwest  Level Estimated
03:52PM 45.8064 -109.9783 325° Northwest  Level Estimated
03:53PM 45.8064 -109.9783 325° Northwest  Level Estimated
03:54PM 45.8064 -109.9783 325° Northwest  Level Estimated
03:55PM 45.8064 -109.9783 325° Northwest  Level Estimated
03:56PM 45.8064 -109.9783 325° Northwest  Level Estimated
03:57PM 45.8064 -109.9783 325° Northwest  Level Estimated
03:58PM 45.8064 -109.9783 325° Northwest  Level Estimated
03:59PM 45.8064 -109.9783 325° Northwest  Level Estimated
04:00PM 45.8064 -109.9783 325° Northwest  Level Estimated
04:01PM 45.8064 -109.9783 325° Northwest  Level Estimated
04:02PM 45.8064 -109.9783 325° Northwest  Level Estimated
04:03PM 45.8064 -109.9783 325° Northwest  Level Estimated
04:04PM 45.8064 -109.9783 325° Northwest  Level Estimated
04:05PM 45.8064 -109.9783 325° Northwest  Level Estimated
04:06PM 45.8064 -109.9783 325° Northwest  Level Estimated
04:07PM 45.8064 -109.9783 325° Northwest  Level Estimated
04:08PM 45.8064 -109.9783 325° Northwest  Level Estimated
04:09PM 45.8064 -109.9783 325° Northwest  Level Estimated
04:10PM 45.8064 -109.9783 325° Northwest  Level Estimated